sensor_id;sensor_type;location;lat;lon;timestamp;P1;durP1;ratioP1;P2;durP2;ratioP2
25155;SDS011;21913;52.456;13.634;2023-04-25T00:04:22;4.38;;;2.10;;
25155;SDS011;21913;52.456;13.634;2023-04-25T00:09:23;5.35;;;2.40;;
25155;SDS011;21913;52.456;13.634;2023-04-25T00:14:25;6.10;;;2.40;;
25155;SDS011;21913;52.456;13.634;2023-04-25T00:19:26;5.18;;;2.42;;
25155;SDS011;21913;52.456;13.634;2023-04-25T00:24:28;3.90;;;2.40;;
25155;SDS011;21913;52.456;13.634;2023-04-25T00:29:29;6.28;;;2.60;;
25155;SDS011;21913;52.456;13.634;2023-04-25T00:34:31;3.75;;;2.33;;
25155;SDS011;21913;52.456;13.634;2023-04-25T00:39:32;4.13;;;2.55;;
25155;SDS011;21913;52.456;13.634;2023-04-25T00:44:34;5.47;;;2.72;;
25155;SDS011;21913;52.456;13.634;2023-04-25T00:49:36;6.55;;;2.45;;
25155;SDS011;21913;52.456;13.634;2023-04-25T00:54:38;4.13;;;2.42;;
25155;SDS011;21913;52.456;13.634;2023-04-25T00:59:39;5.13;;;2.60;;
25155;SDS011;21913;52.456;13.634;2023-04-25T01:04:47;4.82;;;2.60;;
25155;SDS011;21913;52.456;13.634;2023-04-25T01:09:49;6.82;;;2.65;;
25155;SDS011;21913;52.456;13.634;2023-04-25T01:14:52;5.88;;;2.80;;
25155;SDS011;21913;52.456;13.634;2023-04-25T01:19:54;5.53;;;2.53;;
25155;SDS011;21913;52.456;13.634;2023-04-25T01:24:56;4.35;;;2.60;;
25155;SDS011;21913;52.456;13.634;2023-04-25T01:29:58;5.32;;;2.55;;
25155;SDS011;21913;52.456;13.634;2023-04-25T01:35:00;5.53;;;2.67;;
25155;SDS011;21913;52.456;13.634;2023-04-25T01:40:02;4.70;;;2.72;;
25155;SDS011;21913;52.456;13.634;2023-04-25T01:45:04;6.15;;;2.67;;
25155;SDS011;21913;52.456;13.634;2023-04-25T01:50:07;5.78;;;2.58;;
25155;SDS011;21913;52.456;13.634;2023-04-25T01:55:11;5.85;;;2.88;;
25155;SDS011;21913;52.456;13.634;2023-04-25T02:00:18;4.88;;;2.53;;
25155;SDS011;21913;52.456;13.634;2023-04-25T02:05:20;4.72;;;2.78;;
25155;SDS011;21913;52.456;13.634;2023-04-25T02:10:21;4.60;;;2.70;;
25155;SDS011;21913;52.456;13.634;2023-04-25T02:15:37;6.78;;;2.88;;
25155;SDS011;21913;52.456;13.634;2023-04-25T02:20:49;4.45;;;2.70;;
25155;SDS011;21913;52.456;13.634;2023-04-25T02:25:50;5.07;;;2.90;;
25155;SDS011;21913;52.456;13.634;2023-04-25T02:30:53;4.82;;;2.70;;
25155;SDS011;21913;52.456;13.634;2023-04-25T02:35:55;4.70;;;2.88;;
25155;SDS011;21913;52.456;13.634;2023-04-25T02:40:56;4.20;;;2.40;;
25155;SDS011;21913;52.456;13.634;2023-04-25T02:46:00;4.07;;;2.50;;
25155;SDS011;21913;52.456;13.634;2023-04-25T02:51:01;5.10;;;2.80;;
25155;SDS011;21913;52.456;13.634;2023-04-25T02:56:04;4.60;;;2.80;;
25155;SDS011;21913;52.456;13.634;2023-04-25T03:01:05;4.20;;;2.65;;
25155;SDS011;21913;52.456;13.634;2023-04-25T03:06:07;3.92;;;2.50;;
25155;SDS011;21913;52.456;13.634;2023-04-25T03:11:08;3.83;;;2.40;;
25155;SDS011;21913;52.456;13.634;2023-04-25T03:16:10;5.75;;;2.60;;
25155;SDS011;21913;52.456;13.634;2023-04-25T03:21:12;6.30;;;2.47;;
25155;SDS011;21913;52.456;13.634;2023-04-25T03:26:13;4.55;;;2.67;;
25155;SDS011;21913;52.456;13.634;2023-04-25T03:31:15;4.70;;;2.50;;
25155;SDS011;21913;52.456;13.634;2023-04-25T03:36:16;3.67;;;2.47;;
25155;SDS011;21913;52.456;13.634;2023-04-25T03:41:18;4.80;;;2.72;;
25155;SDS011;21913;52.456;13.634;2023-04-25T03:46:24;3.88;;;2.30;;
25155;SDS011;21913;52.456;13.634;2023-04-25T03:51:26;4.50;;;2.45;;
25155;SDS011;21913;52.456;13.634;2023-04-25T03:56:27;3.22;;;2.38;;
25155;SDS011;21913;52.456;13.634;2023-04-25T04:01:36;4.35;;;2.58;;
25155;SDS011;21913;52.456;13.634;2023-04-25T04:06:38;4.20;;;2.58;;
25155;SDS011;21913;52.456;13.634;2023-04-25T04:11:47;4.40;;;2.40;;
25155;SDS011;21913;52.456;13.634;2023-04-25T04:16:50;4.22;;;2.30;;
25155;SDS011;21913;52.456;13.634;2023-04-25T04:21:52;4.55;;;2.40;;
25155;SDS011;21913;52.456;13.634;2023-04-25T04:26:54;4.10;;;2.25;;
25155;SDS011;21913;52.456;13.634;2023-04-25T04:32:19;3.90;;;2.40;;
25155;SDS011;21913;52.456;13.634;2023-04-25T04:37:21;4.97;;;2.25;;
25155;SDS011;21913;52.456;13.634;2023-04-25T04:42:23;3.70;;;2.30;;
25155;SDS011;21913;52.456;13.634;2023-04-25T04:47:39;4.68;;;2.47;;
25155;SDS011;21913;52.456;13.634;2023-04-25T04:53:08;3.17;;;2.00;;
25155;SDS011;21913;52.456;13.634;2023-04-25T04:58:27;3.95;;;1.98;;
25155;SDS011;21913;52.456;13.634;2023-04-25T05:03:41;4.47;;;2.05;;
25155;SDS011;21913;52.456;13.634;2023-04-25T05:09:01;4.47;;;2.22;;
25155;SDS011;21913;52.456;13.634;2023-04-25T05:14:20;5.87;;;2.77;;
25155;SDS011;21913;52.456;13.634;2023-04-25T05:19:39;4.57;;;2.15;;
25155;SDS011;21913;52.456;13.634;2023-04-25T05:25:13;5.40;;;2.30;;
25155;SDS011;21913;52.456;13.634;2023-04-25T05:30:43;3.92;;;2.10;;
25155;SDS011;21913;52.456;13.634;2023-04-25T05:35:50;5.88;;;2.20;;
25155;SDS011;21913;52.456;13.634;2023-04-25T05:40:52;5.13;;;2.35;;
25155;SDS011;21913;52.456;13.634;2023-04-25T05:46:13;3.60;;;1.90;;
25155;SDS011;21913;52.456;13.634;2023-04-25T05:51:26;4.38;;;2.30;;
25155;SDS011;21913;52.456;13.634;2023-04-25T05:56:56;3.88;;;2.22;;
25155;SDS011;21913;52.456;13.634;2023-04-25T06:01:58;4.72;;;2.10;;
25155;SDS011;21913;52.456;13.634;2023-04-25T06:07:01;4.38;;;2.05;;
25155;SDS011;21913;52.456;13.634;2023-04-25T06:12:03;3.47;;;2.03;;
25155;SDS011;21913;52.456;13.634;2023-04-25T06:17:04;4.32;;;2.22;;
25155;SDS011;21913;52.456;13.634;2023-04-25T06:22:06;3.60;;;2.20;;
25155;SDS011;21913;52.456;13.634;2023-04-25T06:27:09;3.90;;;1.92;;
25155;SDS011;21913;52.456;13.634;2023-04-25T06:32:11;5.45;;;2.33;;
25155;SDS011;21913;52.456;13.634;2023-04-25T06:37:12;4.63;;;2.28;;
25155;SDS011;21913;52.456;13.634;2023-04-25T06:42:15;4.25;;;2.08;;
25155;SDS011;21913;52.456;13.634;2023-04-25T06:47:26;4.22;;;1.98;;
25155;SDS011;21913;52.456;13.634;2023-04-25T06:52:27;4.75;;;2.17;;
25155;SDS011;21913;52.456;13.634;2023-04-25T06:57:29;4.43;;;2.20;;
25155;SDS011;21913;52.456;13.634;2023-04-25T07:02:41;6.75;;;1.83;;
25155;SDS011;21913;52.456;13.634;2023-04-25T07:07:43;5.35;;;2.15;;
25155;SDS011;21913;52.456;13.634;2023-04-25T07:12:44;4.18;;;2.08;;
25155;SDS011;21913;52.456;13.634;2023-04-25T07:17:46;4.95;;;2.20;;
25155;SDS011;21913;52.456;13.634;2023-04-25T07:22:47;3.97;;;1.85;;
25155;SDS011;21913;52.456;13.634;2023-04-25T07:27:49;5.85;;;2.13;;
25155;SDS011;21913;52.456;13.634;2023-04-25T07:32:53;4.68;;;2.10;;
25155;SDS011;21913;52.456;13.634;2023-04-25T07:37:54;5.50;;;2.45;;
25155;SDS011;21913;52.456;13.634;2023-04-25T07:42:57;6.72;;;2.25;;
25155;SDS011;21913;52.456;13.634;2023-04-25T07:48:10;4.53;;;1.70;;
25155;SDS011;21913;52.456;13.634;2023-04-25T07:53:13;3.53;;;1.80;;
25155;SDS011;21913;52.456;13.634;2023-04-25T07:58:24;3.50;;;2.00;;
25155;SDS011;21913;52.456;13.634;2023-04-25T08:03:30;5.82;;;2.25;;
25155;SDS011;21913;52.456;13.634;2023-04-25T08:08:33;3.28;;;1.85;;
25155;SDS011;21913;52.456;13.634;2023-04-25T08:13:35;4.85;;;1.90;;
25155;SDS011;21913;52.456;13.634;2023-04-25T08:18:37;5.07;;;2.30;;
25155;SDS011;21913;52.456;13.634;2023-04-25T08:23:39;4.40;;;2.15;;
25155;SDS011;21913;52.456;13.634;2023-04-25T08:28:47;4.38;;;1.85;;
25155;SDS011;21913;52.456;13.634;2023-04-25T08:33:49;3.70;;;1.88;;
25155;SDS011;21913;52.456;13.634;2023-04-25T08:39:19;4.47;;;2.10;;
25155;SDS011;21913;52.456;13.634;2023-04-25T08:44:41;3.47;;;1.65;;
25155;SDS011;21913;52.456;13.634;2023-04-25T08:49:45;4.10;;;2.20;;
25155;SDS011;21913;52.456;13.634;2023-04-25T08:54:48;3.65;;;2.03;;
25155;SDS011;21913;52.456;13.634;2023-04-25T08:59:51;3.88;;;1.80;;
25155;SDS011;21913;52.456;13.634;2023-04-25T09:04:55;2.67;;;1.50;;
25155;SDS011;21913;52.456;13.634;2023-04-25T09:09:57;3.67;;;2.00;;
25155;SDS011;21913;52.456;13.634;2023-04-25T09:15:03;3.30;;;1.83;;
25155;SDS011;21913;52.456;13.634;2023-04-25T09:20:20;3.13;;;1.63;;
25155;SDS011;21913;52.456;13.634;2023-04-25T09:25:22;3.40;;;1.70;;
25155;SDS011;21913;52.456;13.634;2023-04-25T09:30:29;3.30;;;1.70;;
25155;SDS011;21913;52.456;13.634;2023-04-25T09:35:54;4.30;;;1.98;;
25155;SDS011;21913;52.456;13.634;2023-04-25T09:41:37;4.40;;;1.80;;
25155;SDS011;21913;52.456;13.634;2023-04-25T09:46:39;3.05;;;1.75;;
25155;SDS011;21913;52.456;13.634;2023-04-25T09:51:56;3.50;;;1.80;;
25155;SDS011;21913;52.456;13.634;2023-04-25T09:57:04;3.78;;;1.90;;
25155;SDS011;21913;52.456;13.634;2023-04-25T10:02:23;3.58;;;1.70;;
25155;SDS011;21913;52.456;13.634;2023-04-25T10:07:33;3.35;;;1.90;;
25155;SDS011;21913;52.456;13.634;2023-04-25T10:12:40;4.20;;;1.70;;
25155;SDS011;21913;52.456;13.634;2023-04-25T10:17:42;4.53;;;1.35;;
25155;SDS011;21913;52.456;13.634;2023-04-25T10:22:45;4.60;;;2.00;;
25155;SDS011;21913;52.456;13.634;2023-04-25T10:27:50;4.30;;;1.85;;
25155;SDS011;21913;52.456;13.634;2023-04-25T10:32:52;3.08;;;1.85;;
25155;SDS011;21913;52.456;13.634;2023-04-25T10:48:34;3.58;;;1.90;;
25155;SDS011;21913;52.456;13.634;2023-04-25T10:53:36;3.03;;;1.60;;
25155;SDS011;21913;52.456;13.634;2023-04-25T10:58:41;5.47;;;1.45;;
25155;SDS011;21913;52.456;13.634;2023-04-25T11:03:44;5.38;;;1.80;;
25155;SDS011;21913;52.456;13.634;2023-04-25T11:08:49;4.32;;;1.60;;
25155;SDS011;21913;52.456;13.634;2023-04-25T11:13:52;3.50;;;1.60;;
25155;SDS011;21913;52.456;13.634;2023-04-25T11:18:53;5.95;;;1.48;;
25155;SDS011;21913;52.456;13.634;2023-04-25T11:23:58;2.63;;;1.55;;
25155;SDS011;21913;52.456;13.634;2023-04-25T11:29:00;2.33;;;1.63;;
25155;SDS011;21913;52.456;13.634;2023-04-25T11:34:02;3.50;;;1.52;;
25155;SDS011;21913;52.456;13.634;2023-04-25T11:39:03;3.08;;;1.42;;
25155;SDS011;21913;52.456;13.634;2023-04-25T11:44:05;3.63;;;1.60;;
25155;SDS011;21913;52.456;13.634;2023-04-25T11:49:07;2.72;;;1.50;;
25155;SDS011;21913;52.456;13.634;2023-04-25T11:54:09;3.80;;;1.50;;
25155;SDS011;21913;52.456;13.634;2023-04-25T11:59:11;3.45;;;1.40;;
25155;SDS011;21913;52.456;13.634;2023-04-25T12:04:17;2.88;;;1.55;;
25155;SDS011;21913;52.456;13.634;2023-04-25T12:14:32;3.05;;;1.50;;
25155;SDS011;21913;52.456;13.634;2023-04-25T12:19:35;3.17;;;1.70;;
25155;SDS011;21913;52.456;13.634;2023-04-25T12:24:38;3.67;;;1.52;;
25155;SDS011;21913;52.456;13.634;2023-04-25T12:29:40;2.63;;;1.63;;
25155;SDS011;21913;52.456;13.634;2023-04-25T12:34:54;2.88;;;1.38;;
25155;SDS011;21913;52.456;13.634;2023-04-25T12:39:56;2.53;;;1.40;;
25155;SDS011;21913;52.456;13.634;2023-04-25T12:44:57;3.13;;;1.50;;
25155;SDS011;21913;52.456;13.634;2023-04-25T12:49:59;2.50;;;1.30;;
25155;SDS011;21913;52.456;13.634;2023-04-25T12:55:00;3.55;;;1.55;;
25155;SDS011;21913;52.456;13.634;2023-04-25T13:00:02;2.58;;;1.35;;
25155;SDS011;21913;52.456;13.634;2023-04-25T13:05:04;2.95;;;1.40;;
25155;SDS011;21913;52.456;13.634;2023-04-25T13:10:06;4.80;;;1.42;;
25155;SDS011;21913;52.456;13.634;2023-04-25T13:15:08;5.75;;;1.90;;
25155;SDS011;21913;52.456;13.634;2023-04-25T13:20:10;8.80;;;2.38;;
25155;SDS011;21913;52.456;13.634;2023-04-25T13:25:12;9.70;;;2.38;;
25155;SDS011;21913;52.456;13.634;2023-04-25T13:30:13;10.02;;;2.15;;
25155;SDS011;21913;52.456;13.634;2023-04-25T13:35:16;4.32;;;1.90;;
25155;SDS011;21913;52.456;13.634;2023-04-25T13:40:17;10.35;;;2.28;;
25155;SDS011;21913;52.456;13.634;2023-04-25T13:45:19;6.10;;;2.00;;
25155;SDS011;21913;52.456;13.634;2023-04-25T13:50:21;5.65;;;1.92;;
25155;SDS011;21913;52.456;13.634;2023-04-25T13:55:22;7.68;;;1.95;;
25155;SDS011;21913;52.456;13.634;2023-04-25T14:00:24;8.80;;;2.42;;
25155;SDS011;21913;52.456;13.634;2023-04-25T14:05:25;7.32;;;2.22;;
25155;SDS011;21913;52.456;13.634;2023-04-25T14:10:27;7.75;;;1.90;;
25155;SDS011;21913;52.456;13.634;2023-04-25T14:15:29;5.55;;;1.90;;
25155;SDS011;21913;52.456;13.634;2023-04-25T14:20:34;6.05;;;1.90;;
25155;SDS011;21913;52.456;13.634;2023-04-25T14:25:36;6.28;;;1.90;;
25155;SDS011;21913;52.456;13.634;2023-04-25T14:30:37;5.30;;;1.60;;
25155;SDS011;21913;52.456;13.634;2023-04-25T14:35:39;7.70;;;1.88;;
25155;SDS011;21913;52.456;13.634;2023-04-25T14:40:40;7.05;;;1.92;;
25155;SDS011;21913;52.456;13.634;2023-04-25T14:45:42;6.00;;;1.80;;
25155;SDS011;21913;52.456;13.634;2023-04-25T14:50:43;5.20;;;1.58;;
25155;SDS011;21913;52.456;13.634;2023-04-25T14:55:45;4.78;;;1.77;;
25155;SDS011;21913;52.456;13.634;2023-04-25T15:00:46;4.47;;;1.80;;
25155;SDS011;21913;52.456;13.634;2023-04-25T15:05:48;4.50;;;1.40;;
25155;SDS011;21913;52.456;13.634;2023-04-25T15:10:49;4.20;;;1.50;;
25155;SDS011;21913;52.456;13.634;2023-04-25T15:15:51;5.07;;;1.80;;
25155;SDS011;21913;52.456;13.634;2023-04-25T15:20:53;3.50;;;1.33;;
25155;SDS011;21913;52.456;13.634;2023-04-25T15:25:54;4.60;;;1.63;;
25155;SDS011;21913;52.456;13.634;2023-04-25T15:30:56;3.38;;;1.17;;
25155;SDS011;21913;52.456;13.634;2023-04-25T15:35:58;3.35;;;1.30;;
25155;SDS011;21913;52.456;13.634;2023-04-25T15:40:59;3.28;;;1.27;;
25155;SDS011;21913;52.456;13.634;2023-04-25T15:46:00;4.22;;;1.35;;
25155;SDS011;21913;52.456;13.634;2023-04-25T15:51:02;3.95;;;1.40;;
25155;SDS011;21913;52.456;13.634;2023-04-25T15:56:04;4.35;;;1.40;;
25155;SDS011;21913;52.456;13.634;2023-04-25T16:01:05;4.18;;;1.55;;
25155;SDS011;21913;52.456;13.634;2023-04-25T16:06:07;4.53;;;1.50;;
25155;SDS011;21913;52.456;13.634;2023-04-25T16:11:08;3.63;;;1.35;;
25155;SDS011;21913;52.456;13.634;2023-04-25T16:16:10;2.97;;;1.30;;
25155;SDS011;21913;52.456;13.634;2023-04-25T16:21:11;4.47;;;1.35;;
25155;SDS011;21913;52.456;13.634;2023-04-25T16:26:13;2.53;;;1.20;;
25155;SDS011;21913;52.456;13.634;2023-04-25T16:31:15;3.42;;;1.50;;
25155;SDS011;21913;52.456;13.634;2023-04-25T16:36:16;2.55;;;1.15;;
25155;SDS011;21913;52.456;13.634;2023-04-25T16:41:18;3.83;;;1.33;;
25155;SDS011;21913;52.456;13.634;2023-04-25T16:46:19;2.90;;;1.35;;
25155;SDS011;21913;52.456;13.634;2023-04-25T16:51:27;3.95;;;1.33;;
25155;SDS011;21913;52.456;13.634;2023-04-25T16:56:29;2.15;;;1.10;;
25155;SDS011;21913;52.456;13.634;2023-04-25T17:01:30;2.10;;;1.20;;
25155;SDS011;21913;52.456;13.634;2023-04-25T17:06:32;2.55;;;1.30;;
25155;SDS011;21913;52.456;13.634;2023-04-25T17:11:33;2.58;;;1.20;;
25155;SDS011;21913;52.456;13.634;2023-04-25T17:16:35;2.33;;;1.15;;
25155;SDS011;21913;52.456;13.634;2023-04-25T17:21:38;1.98;;;1.20;;
25155;SDS011;21913;52.456;13.634;2023-04-25T17:26:39;1.60;;;1.00;;
25155;SDS011;21913;52.456;13.634;2023-04-25T17:31:41;2.58;;;1.23;;
25155;SDS011;21913;52.456;13.634;2023-04-25T17:36:43;3.28;;;1.13;;
25155;SDS011;21913;52.456;13.634;2023-04-25T17:41:45;2.13;;;1.20;;
25155;SDS011;21913;52.456;13.634;2023-04-25T17:46:46;1.98;;;0.90;;
25155;SDS011;21913;52.456;13.634;2023-04-25T17:51:48;1.63;;;0.88;;
25155;SDS011;21913;52.456;13.634;2023-04-25T17:56:50;2.05;;;1.00;;
25155;SDS011;21913;52.456;13.634;2023-04-25T18:01:51;1.80;;;1.00;;
25155;SDS011;21913;52.456;13.634;2023-04-25T18:06:53;3.10;;;1.23;;
25155;SDS011;21913;52.456;13.634;2023-04-25T18:11:54;1.60;;;0.90;;
25155;SDS011;21913;52.456;13.634;2023-04-25T18:16:56;2.80;;;1.10;;
25155;SDS011;21913;52.456;13.634;2023-04-25T18:21:57;4.30;;;1.17;;
25155;SDS011;21913;52.456;13.634;2023-04-25T18:32:23;3.10;;;1.30;;
25155;SDS011;21913;52.456;13.634;2023-04-25T18:37:25;4.32;;;1.30;;
25155;SDS011;21913;52.456;13.634;2023-04-25T18:42:27;2.60;;;1.20;;
25155;SDS011;21913;52.456;13.634;2023-04-25T18:47:28;5.72;;;1.30;;
25155;SDS011;21913;52.456;13.634;2023-04-25T18:52:30;3.47;;;1.38;;
25155;SDS011;21913;52.456;13.634;2023-04-25T18:57:31;3.97;;;1.40;;
25155;SDS011;21913;52.456;13.634;2023-04-25T19:02:33;3.85;;;1.30;;
25155;SDS011;21913;52.456;13.634;2023-04-25T19:07:35;2.58;;;1.17;;
25155;SDS011;21913;52.456;13.634;2023-04-25T19:12:37;4.03;;;1.50;;
25155;SDS011;21913;52.456;13.634;2023-04-25T19:17:39;3.00;;;1.20;;
25155;SDS011;21913;52.456;13.634;2023-04-25T19:22:40;2.83;;;1.17;;
25155;SDS011;21913;52.456;13.634;2023-04-25T19:27:42;2.55;;;1.30;;
25155;SDS011;21913;52.456;13.634;2023-04-25T19:32:43;2.80;;;1.25;;
25155;SDS011;21913;52.456;13.634;2023-04-25T19:37:45;2.45;;;1.10;;
25155;SDS011;21913;52.456;13.634;2023-04-25T19:42:46;2.33;;;1.00;;
25155;SDS011;21913;52.456;13.634;2023-04-25T19:47:48;3.15;;;1.13;;
25155;SDS011;21913;52.456;13.634;2023-04-25T19:52:50;3.15;;;1.00;;
25155;SDS011;21913;52.456;13.634;2023-04-25T19:57:52;2.55;;;1.08;;
25155;SDS011;21913;52.456;13.634;2023-04-25T20:02:53;2.40;;;1.20;;
25155;SDS011;21913;52.456;13.634;2023-04-25T20:07:54;2.58;;;1.20;;
25155;SDS011;21913;52.456;13.634;2023-04-25T20:12:56;2.45;;;1.20;;
25155;SDS011;21913;52.456;13.634;2023-04-25T20:17:57;2.95;;;1.30;;
25155;SDS011;21913;52.456;13.634;2023-04-25T20:22:59;2.13;;;1.17;;
25155;SDS011;21913;52.456;13.634;2023-04-25T20:28:00;4.60;;;1.13;;
25155;SDS011;21913;52.456;13.634;2023-04-25T20:33:02;2.53;;;1.17;;
25155;SDS011;21913;52.456;13.634;2023-04-25T20:38:03;2.50;;;1.13;;
25155;SDS011;21913;52.456;13.634;2023-04-25T20:43:05;1.92;;;1.08;;
25155;SDS011;21913;52.456;13.634;2023-04-25T20:48:07;4.97;;;1.25;;
25155;SDS011;21913;52.456;13.634;2023-04-25T20:53:08;2.65;;;1.13;;
25155;SDS011;21913;52.456;13.634;2023-04-25T20:58:10;2.30;;;1.00;;
25155;SDS011;21913;52.456;13.634;2023-04-25T21:03:11;2.22;;;1.10;;
25155;SDS011;21913;52.456;13.634;2023-04-25T21:08:13;2.28;;;1.10;;
25155;SDS011;21913;52.456;13.634;2023-04-25T21:13:14;2.17;;;1.00;;
25155;SDS011;21913;52.456;13.634;2023-04-25T21:18:16;2.97;;;1.10;;
25155;SDS011;21913;52.456;13.634;2023-04-25T21:23:17;2.50;;;1.10;;
25155;SDS011;21913;52.456;13.634;2023-04-25T21:28:19;2.47;;;1.10;;
25155;SDS011;21913;52.456;13.634;2023-04-25T21:33:21;2.80;;;1.20;;
25155;SDS011;21913;52.456;13.634;2023-04-25T21:38:22;2.40;;;1.20;;
25155;SDS011;21913;52.456;13.634;2023-04-25T21:43:24;2.58;;;1.30;;
25155;SDS011;21913;52.456;13.634;2023-04-25T21:48:25;2.05;;;1.05;;
25155;SDS011;21913;52.456;13.634;2023-04-25T21:53:27;2.33;;;1.20;;
25155;SDS011;21913;52.456;13.634;2023-04-25T21:58:28;2.55;;;1.25;;
25155;SDS011;21913;52.456;13.634;2023-04-25T22:03:30;2.70;;;1.25;;
25155;SDS011;21913;52.456;13.634;2023-04-25T22:08:32;2.13;;;1.15;;
25155;SDS011;21913;52.456;13.634;2023-04-25T22:13:33;1.90;;;1.20;;
25155;SDS011;21913;52.456;13.634;2023-04-25T22:18:35;2.97;;;1.15;;
25155;SDS011;21913;52.456;13.634;2023-04-25T22:23:36;2.55;;;1.20;;
25155;SDS011;21913;52.456;13.634;2023-04-25T22:28:38;3.45;;;1.02;;
25155;SDS011;21913;52.456;13.634;2023-04-25T22:33:39;1.75;;;1.10;;
25155;SDS011;21913;52.456;13.634;2023-04-25T22:38:41;2.20;;;1.23;;
25155;SDS011;21913;52.456;13.634;2023-04-25T22:43:42;3.53;;;1.30;;
25155;SDS011;21913;52.456;13.634;2023-04-25T22:48:44;2.05;;;1.23;;
25155;SDS011;21913;52.456;13.634;2023-04-25T22:53:47;3.17;;;1.40;;
25155;SDS011;21913;52.456;13.634;2023-04-25T22:58:49;2.60;;;1.10;;
25155;SDS011;21913;52.456;13.634;2023-04-25T23:03:51;1.95;;;0.95;;
25155;SDS011;21913;52.456;13.634;2023-04-25T23:08:52;2.58;;;1.20;;
25155;SDS011;21913;52.456;13.634;2023-04-25T23:13:54;2.30;;;1.13;;
25155;SDS011;21913;52.456;13.634;2023-04-25T23:18:55;2.30;;;1.13;;
25155;SDS011;21913;52.456;13.634;2023-04-25T23:23:57;4.05;;;1.23;;
25155;SDS011;21913;52.456;13.634;2023-04-25T23:28:58;3.40;;;1.35;;
25155;SDS011;21913;52.456;13.634;2023-04-25T23:34:00;3.20;;;1.10;;
25155;SDS011;21913;52.456;13.634;2023-04-25T23:39:01;1.77;;;1.00;;
25155;SDS011;21913;52.456;13.634;2023-04-25T23:44:02;3.15;;;1.30;;
25155;SDS011;21913;52.456;13.634;2023-04-25T23:49:04;2.35;;;1.40;;
25155;SDS011;21913;52.456;13.634;2023-04-25T23:54:05;2.55;;;1.35;;
25155;SDS011;21913;52.456;13.634;2023-04-25T23:59:07;2.00;;;1.17;;
